createdAt,value
2019-06-26T00:01:37.190Z,83.35
2019-06-26T00:06:40.850Z,86.17
2019-06-26T00:11:44.555Z,82.37
2019-06-26T00:16:50.221Z,84.50
2019-06-26T00:22:06.845Z,82.97
2019-06-26T00:27:11.457Z,88.87
2019-06-26T00:32:16.601Z,79.32
2019-06-26T00:37:24.908Z,84.25
2019-06-26T00:42:28.660Z,79.10
2019-06-26T00:47:32.700Z,78.70
2019-06-26T00:52:36.403Z,68.45
2019-06-26T00:57:58.352Z,79.50
2019-06-26T01:03:02.086Z,68.62
2019-06-26T01:08:05.768Z,71.90
2019-06-26T01:13:15.108Z,70.92
2019-06-26T01:18:18.819Z,63.65
2019-06-26T01:23:25.139Z,68.40
2019-06-26T01:28:28.784Z,56.98
2019-06-26T01:33:33.462Z,61.02
2019-06-26T01:38:38.086Z,59.38
2019-06-26T01:43:42.881Z,55.15
2019-06-26T01:48:46.647Z,63.50
2019-06-26T01:54:00.729Z,58.20
2019-06-26T01:59:12.493Z,54.88
2019-06-26T02:04:16.102Z,60.40
2019-06-26T02:09:19.874Z,71.28
2019-06-26T02:14:31.679Z,70.85
2019-06-26T02:19:37.397Z,82.02
2019-06-26T02:24:43.200Z,82.97
2019-06-26T02:29:55.476Z,91.97
2019-06-26T02:35:09.655Z,86.63
2019-06-26T02:40:14.688Z,98.35
2019-06-26T02:45:18.346Z,92.88
2019-06-26T02:50:24.541Z,99.77
2019-06-26T02:55:28.292Z,101.58
2019-06-26T03:00:32.018Z,105.40
2019-06-26T03:05:39.737Z,103.27
2019-06-26T03:10:46.479Z,90.53
2019-06-26T03:15:53.166Z,102.07
2019-06-26T03:20:57.912Z,103.50
2019-06-26T03:26:01.661Z,97.05
2019-06-26T03:31:05.416Z,90.77
2019-06-26T03:36:09.055Z,99.95
2019-06-26T03:41:20.915Z,91.72
2019-06-26T03:46:25.539Z,98.62
2019-06-26T03:51:31.251Z,101.90
2019-06-26T03:56:35.002Z,107.10
2019-06-26T04:01:38.679Z,108.83
2019-06-26T04:06:42.368Z,109.48
2019-06-26T04:11:46.066Z,105.37
2019-06-26T04:16:56.474Z,109.63
2019-06-26T04:22:00.143Z,102.80
2019-06-26T04:27:04.014Z,117.10
2019-06-26T04:32:07.770Z,115.00
2019-06-26T04:37:13.389Z,126.82
2019-06-26T04:42:16.966Z,121.33
2019-06-26T04:47:22.623Z,116.30
2019-06-26T04:52:27.250Z,118.15
2019-06-26T04:57:31.002Z,132.72
2019-06-26T05:02:43.570Z,125.20
2019-06-26T05:07:47.206Z,126.05
2019-06-26T05:12:51.111Z,141.05
2019-06-26T05:17:54.836Z,139.68
2019-06-26T05:23:05.467Z,139.60
2019-06-26T05:28:09.248Z,131.35
2019-06-26T05:33:12.756Z,135.82
2019-06-26T05:38:16.251Z,128.42
2019-06-26T05:43:19.979Z,111.95
2019-06-26T05:48:23.538Z,109.75
2019-06-26T05:53:27.104Z,93.75
2019-06-26T05:58:30.736Z,100.42
2019-06-26T06:03:36.018Z,102.80
2019-06-26T06:08:41.201Z,102.15
2019-06-26T06:13:46.324Z,95.55
2019-06-26T06:18:49.820Z,94.85
2019-06-26T06:23:53.377Z,93.95
2019-06-26T06:28:56.890Z,94.40
2019-06-26T06:34:00.619Z,103.20
2019-06-26T06:39:05.977Z,93.45
2019-06-26T06:44:09.503Z,99.90
2019-06-26T06:49:13.298Z,80.53
2019-06-26T06:54:16.818Z,87.97
2019-06-26T06:59:22.186Z,81.65
2019-06-26T07:04:25.706Z,76.70
2019-06-26T07:09:29.215Z,75.10
2019-06-26T07:14:32.755Z,64.45
2019-06-26T07:19:36.337Z,62.90
2019-06-26T07:24:39.857Z,69.35
2019-06-26T07:29:43.404Z,66.25
2019-06-26T07:34:46.930Z,65.67
2019-06-26T07:39:50.441Z,79.97
2019-06-26T07:44:54.057Z,65.12
2019-06-26T07:49:59.338Z,58.20
2019-06-26T07:55:02.934Z,53.28
2019-06-26T08:00:07.325Z,56.50
2019-06-26T08:05:11.925Z,55.35
2019-06-26T08:10:15.936Z,53.10
2019-06-26T08:15:19.925Z,48.23
2019-06-26T08:20:23.455Z,50.58
2019-06-26T08:25:27.130Z,46.37
2019-06-26T08:30:30.749Z,43.20
2019-06-26T08:35:34.362Z,45.88
2019-06-26T08:40:52.883Z,46.42
2019-06-26T08:46:17.853Z,40.73
2019-06-26T08:51:25.102Z,41.83
2019-06-26T08:56:28.666Z,46.50
2019-06-26T09:01:32.255Z,45.43
2019-06-26T09:06:35.873Z,50.65
2019-06-26T09:11:40.320Z,51.37
2019-06-26T09:16:45.506Z,42.43
2019-06-26T09:22:00.848Z,40.20
2019-06-26T09:27:04.849Z,43.83
2019-06-26T09:32:08.543Z,44.05
2019-06-26T09:37:12.360Z,46.00
2019-06-26T09:42:19.386Z,43.05
2019-06-26T09:47:21.256Z,44.98
2019-06-26T09:52:25.815Z,50.43
2019-06-26T09:57:46.653Z,43.48
2019-06-26T10:02:56.236Z,50.90
2019-06-26T10:07:59.865Z,38.17
2019-06-26T10:13:03.617Z,43.38
2019-06-26T10:18:07.385Z,45.50
2019-06-26T10:23:13.030Z,48.78
2019-06-26T10:28:16.694Z,49.98
2019-06-26T10:33:26.201Z,47.53
2019-06-26T10:38:29.812Z,61.77
2019-06-26T10:43:35.237Z,52.27
2019-06-26T10:48:38.860Z,53.25
2019-06-26T10:53:42.481Z,58.95
2019-06-26T10:58:47.684Z,64.37
2019-06-26T11:03:52.954Z,74.37
2019-06-26T11:08:56.468Z,66.62
2019-06-26T11:14:00.027Z,72.10
2019-06-26T11:19:04.097Z,69.53
2019-06-26T11:24:09.288Z,66.60
2019-06-26T11:29:12.951Z,70.67
2019-06-26T11:34:16.657Z,65.67
2019-06-26T11:39:20.320Z,63.40
2019-06-26T11:44:37.736Z,61.18
2019-06-26T11:49:41.435Z,55.00
2019-06-26T11:54:58.297Z,55.30
2019-06-26T11:59:50.415Z,52.13
2019-06-26T12:05:26.007Z,49.70
2019-06-26T12:10:21.413Z,51.23
2019-06-26T12:15:29.005Z,51.48
2019-06-26T12:20:34.163Z,47.30
2019-06-26T12:25:40.243Z,43.95
2019-06-26T12:30:48.072Z,43.40
2019-06-26T12:35:50.835Z,39.65
2019-06-26T12:40:54.420Z,26.10
2019-06-26T12:45:57.917Z,32.65
2019-06-26T12:51:01.574Z,20.20
2019-06-26T12:56:09.591Z,23.25
2019-06-26T13:01:13.180Z,18.27
2019-06-26T13:06:16.755Z,23.50
2019-06-26T13:11:20.292Z,18.62
2019-06-26T13:16:25.414Z,16.15
2019-06-26T13:21:28.954Z,23.07
2019-06-26T13:26:32.482Z,17.27
2019-06-26T13:31:36.304Z,14.53
2019-06-26T13:36:40.435Z,13.50
2019-06-26T13:41:43.963Z,22.22
2019-06-26T13:46:52.076Z,18.55
2019-06-26T13:51:56.006Z,19.23
2019-06-26T13:56:59.694Z,19.60
2019-06-26T14:02:04.774Z,18.98
2019-06-26T14:07:13.286Z,19.52
2019-06-26T14:12:19.145Z,22.13
2019-06-26T14:17:25.919Z,18.85
2019-06-26T14:22:32.644Z,17.10
2019-06-26T14:27:36.260Z,21.97
2019-06-26T14:32:39.878Z,20.95
2019-06-26T14:37:45.048Z,15.45
2019-06-26T14:42:48.741Z,19.02
2019-06-26T14:48:00.823Z,24.47
2019-06-26T14:53:06.156Z,13.20
2019-06-26T14:58:09.874Z,18.15
2019-06-26T15:03:18.855Z,13.80
2019-06-26T15:08:26.783Z,10.05
2019-06-26T15:13:30.515Z,20.20
2019-06-26T15:18:34.278Z,10.72
2019-06-26T15:23:39.599Z,13.08
2019-06-26T15:28:43.227Z,15.93
2019-06-26T15:33:47.887Z,17.95
2019-06-26T15:38:54.353Z,12.53
2019-06-26T15:43:58.935Z,13.13
2019-06-26T15:49:02.504Z,11.30
2019-06-26T15:54:06.095Z,12.58
2019-06-26T15:59:11.638Z,6.33
2019-06-26T16:04:16.204Z,9.60
2019-06-26T16:09:19.845Z,11.70
2019-06-26T16:14:23.495Z,16.40
2019-06-26T16:19:27.034Z,11.10
2019-06-26T16:24:30.606Z,12.45
2019-06-26T16:29:34.114Z,11.20
2019-06-26T16:34:37.716Z,9.90
2019-06-26T16:39:42.146Z,6.78
2019-06-26T16:44:45.768Z,6.92
2019-06-26T16:49:53.595Z,14.30
2019-06-26T16:54:58.120Z,6.90
2019-06-26T17:00:09.416Z,8.78
2019-06-26T17:05:11.676Z,8.65
2019-06-26T17:10:15.528Z,4.22
2019-06-26T17:15:19.233Z,3.72
2019-06-26T17:20:25.670Z,3.90
2019-06-26T17:25:29.250Z,9.53
2019-06-26T17:30:32.892Z,3.58
2019-06-26T17:35:36.437Z,4.42
2019-06-26T17:40:40.100Z,5.33
2019-06-26T17:45:44.577Z,6.55
2019-06-26T17:50:48.286Z,6.75
2019-06-26T17:55:51.863Z,6.42
2019-06-26T18:00:56.250Z,9.08
2019-06-26T18:06:05.993Z,11.20
2019-06-26T18:11:09.729Z,3.67
2019-06-26T18:16:13.492Z,2.62
2019-06-26T18:21:18.118Z,5.22
2019-06-26T18:26:46.215Z,7.95
2019-06-26T18:31:49.941Z,6.65
2019-06-26T18:36:56.311Z,5.15
2019-06-26T18:42:02.426Z,2.25
2019-06-26T18:47:12.834Z,8.00
2019-06-26T18:52:16.616Z,8.15
2019-06-26T18:57:33.379Z,5.25
2019-06-26T19:02:46.130Z,6.55
2019-06-26T19:07:52.406Z,5.22
2019-06-26T19:13:09.468Z,6.92
2019-06-26T19:18:13.137Z,7.15
2019-06-26T19:23:22.525Z,9.00
2019-06-26T19:28:26.218Z,7.53
2019-06-26T19:33:30.961Z,8.65
2019-06-26T19:38:59.682Z,8.55
2019-06-26T19:44:09.098Z,8.30
2019-06-26T19:49:14.590Z,7.58
2019-06-26T19:54:32.348Z,10.68
2019-06-26T19:59:56.253Z,8.33
2019-06-26T20:05:07.593Z,6.65
2019-06-26T20:10:17.062Z,11.08
2019-06-26T20:15:28.187Z,7.20
2019-06-26T20:20:31.980Z,8.60
2019-06-26T20:25:35.709Z,6.50
2019-06-26T20:30:39.462Z,7.15
2019-06-26T20:35:55.553Z,8.25
2019-06-26T20:41:11.790Z,8.95
2019-06-26T20:46:15.728Z,12.00
2019-06-26T20:51:21.055Z,9.53
2019-06-26T20:56:25.855Z,6.97
2019-06-26T21:01:29.740Z,11.35
2019-06-26T21:06:33.358Z,9.95
2019-06-26T21:11:37.030Z,9.43
2019-06-26T21:16:50.025Z,5.08
2019-06-26T21:21:53.693Z,6.55
2019-06-26T21:26:58.346Z,10.23
2019-06-26T21:32:02.052Z,8.50
2019-06-26T21:37:31.005Z,5.97
2019-06-26T21:42:39.907Z,7.47
2019-06-26T21:47:48.961Z,6.72
2019-06-26T21:52:53.734Z,11.50
2019-06-26T21:58:03.670Z,9.10
2019-06-26T22:03:09.716Z,10.70
2019-06-26T22:08:15.077Z,10.50
2019-06-26T22:13:23.510Z,8.20
2019-06-26T22:18:34.417Z,10.40
2019-06-26T22:23:39.858Z,8.73
2019-06-26T22:28:44.646Z,10.28
2019-06-26T22:33:50.300Z,7.87
2019-06-26T22:38:56.923Z,7.62
2019-06-26T22:44:10.485Z,9.85
2019-06-26T22:49:38.922Z,11.68
2019-06-26T22:54:43.649Z,11.20
2019-06-26T22:59:49.538Z,6.65
2019-06-26T23:04:53.466Z,8.70
2019-06-26T23:10:03.449Z,10.72
2019-06-26T23:15:11.199Z,8.97
2019-06-26T23:20:18.397Z,9.18
2019-06-26T23:25:23.120Z,14.20
2019-06-26T23:30:26.896Z,9.78
2019-06-26T23:35:33.586Z,14.03
2019-06-26T23:40:45.097Z,8.25
2019-06-26T23:45:53.750Z,9.03
2019-06-26T23:50:57.501Z,9.05
2019-06-26T23:56:05.511Z,14.93
